sensor_id;sensor_type;location;lat;lon;timestamp;P1;durP1;ratioP1;P2;durP2;ratioP2
11845;SDS011;5982;37.494;-8.758;2022-11-11T02:24:41;4.70;;;1.30;;
11845;SDS011;5982;37.494;-8.758;2022-11-11T02:27:10;3.50;;;1.40;;
11845;SDS011;5982;37.494;-8.758;2022-11-11T02:29:42;2.92;;;0.98;;
11845;SDS011;5982;37.494;-8.758;2022-11-11T02:32:14;3.80;;;1.20;;
11845;SDS011;5982;37.494;-8.758;2022-11-11T02:34:42;5.18;;;1.17;;
11845;SDS011;5982;37.494;-8.758;2022-11-11T02:37:11;3.50;;;1.10;;
11845;SDS011;5982;37.494;-8.758;2022-11-11T02:39:42;5.13;;;1.13;;
11845;SDS011;5982;37.494;-8.758;2022-11-11T02:42:13;7.13;;;1.10;;
11845;SDS011;5982;37.494;-8.758;2022-11-11T02:44:42;1.90;;;0.80;;
11845;SDS011;5982;37.494;-8.758;2022-11-11T02:47:10;4.78;;;1.33;;
11845;SDS011;5982;37.494;-8.758;2022-11-11T02:49:39;4.53;;;1.40;;
11845;SDS011;5982;37.494;-8.758;2022-11-11T02:52:07;4.43;;;1.20;;
11845;SDS011;5982;37.494;-8.758;2022-11-11T02:54:35;3.75;;;1.10;;
11845;SDS011;5982;37.494;-8.758;2022-11-11T02:57:05;3.33;;;0.90;;
11845;SDS011;5982;37.494;-8.758;2022-11-11T02:59:34;3.05;;;1.13;;
11845;SDS011;5982;37.494;-8.758;2022-11-11T03:02:03;4.63;;;1.35;;
11845;SDS011;5982;37.494;-8.758;2022-11-11T03:04:32;2.53;;;1.20;;
11845;SDS011;5982;37.494;-8.758;2022-11-11T03:07:01;5.78;;;1.00;;
11845;SDS011;5982;37.494;-8.758;2022-11-11T03:09:30;3.57;;;1.23;;
11845;SDS011;5982;37.494;-8.758;2022-11-11T03:11:58;6.53;;;1.40;;
11845;SDS011;5982;37.494;-8.758;2022-11-11T03:14:28;2.65;;;1.05;;
11845;SDS011;5982;37.494;-8.758;2022-11-11T03:16:56;4.70;;;1.10;;
11845;SDS011;5982;37.494;-8.758;2022-11-11T03:19:42;7.68;;;1.27;;
11845;SDS011;5982;37.494;-8.758;2022-11-11T03:22:10;2.93;;;1.07;;
11845;SDS011;5982;37.494;-8.758;2022-11-11T03:24:37;5.72;;;1.27;;
11845;SDS011;5982;37.494;-8.758;2022-11-11T03:27:25;6.50;;;1.30;;
11845;SDS011;5982;37.494;-8.758;2022-11-11T03:29:54;3.92;;;0.90;;
11845;SDS011;5982;37.494;-8.758;2022-11-11T03:32:23;5.88;;;1.38;;
11845;SDS011;5982;37.494;-8.758;2022-11-11T03:34:51;6.17;;;1.00;;
11845;SDS011;5982;37.494;-8.758;2022-11-11T03:37:19;4.97;;;1.40;;
11845;SDS011;5982;37.494;-8.758;2022-11-11T03:40:07;5.40;;;1.40;;
11845;SDS011;5982;37.494;-8.758;2022-11-11T03:42:36;3.08;;;0.90;;
11845;SDS011;5982;37.494;-8.758;2022-11-11T03:45:08;4.43;;;1.00;;
11845;SDS011;5982;37.494;-8.758;2022-11-11T03:47:36;3.40;;;0.80;;
11845;SDS011;5982;37.494;-8.758;2022-11-11T03:50:05;6.80;;;1.42;;
11845;SDS011;5982;37.494;-8.758;2022-11-11T03:52:34;5.13;;;1.17;;
11845;SDS011;5982;37.494;-8.758;2022-11-11T03:55:07;6.88;;;1.50;;
11845;SDS011;5982;37.494;-8.758;2022-11-11T03:57:38;4.63;;;0.90;;
11845;SDS011;5982;37.494;-8.758;2022-11-11T04:00:11;2.37;;;0.97;;
11845;SDS011;5982;37.494;-8.758;2022-11-11T04:02:41;3.22;;;0.82;;
11845;SDS011;5982;37.494;-8.758;2022-11-11T04:05:27;3.10;;;1.02;;
11845;SDS011;5982;37.494;-8.758;2022-11-11T04:08:13;5.43;;;1.20;;
11845;SDS011;5982;37.494;-8.758;2022-11-11T04:11:02;5.47;;;1.25;;
11845;SDS011;5982;37.494;-8.758;2022-11-11T04:13:34;2.20;;;0.80;;
11845;SDS011;5982;37.494;-8.758;2022-11-11T04:16:22;4.22;;;0.73;;
11845;SDS011;5982;37.494;-8.758;2022-11-11T04:18:51;3.33;;;1.20;;
11845;SDS011;5982;37.494;-8.758;2022-11-11T04:21:36;3.45;;;0.95;;
11845;SDS011;5982;37.494;-8.758;2022-11-11T04:24:10;3.03;;;0.90;;
11845;SDS011;5982;37.494;-8.758;2022-11-11T04:26:58;3.70;;;0.93;;
11845;SDS011;5982;37.494;-8.758;2022-11-11T04:29:28;2.22;;;0.90;;
11845;SDS011;5982;37.494;-8.758;2022-11-11T04:31:58;3.13;;;1.10;;
11845;SDS011;5982;37.494;-8.758;2022-11-11T04:34:46;3.50;;;0.70;;
11845;SDS011;5982;37.494;-8.758;2022-11-11T04:37:16;4.57;;;1.02;;
11845;SDS011;5982;37.494;-8.758;2022-11-11T04:39:45;5.10;;;0.83;;
11845;SDS011;5982;37.494;-8.758;2022-11-11T04:42:32;2.55;;;0.90;;
11845;SDS011;5982;37.494;-8.758;2022-11-11T04:45:00;4.32;;;0.88;;
11845;SDS011;5982;37.494;-8.758;2022-11-11T04:47:54;4.22;;;0.68;;
11845;SDS011;5982;37.494;-8.758;2022-11-11T04:50:25;1.75;;;0.60;;
11845;SDS011;5982;37.494;-8.758;2022-11-11T04:52:55;3.97;;;0.80;;
11845;SDS011;5982;37.494;-8.758;2022-11-11T04:55:24;1.80;;;0.50;;
11845;SDS011;5982;37.494;-8.758;2022-11-11T04:58:09;2.90;;;0.80;;
11845;SDS011;5982;37.494;-8.758;2022-11-11T05:00:38;1.77;;;0.60;;
11845;SDS011;5982;37.494;-8.758;2022-11-11T05:03:10;3.78;;;0.50;;
11845;SDS011;5982;37.494;-8.758;2022-11-11T05:05:41;4.77;;;0.83;;
11845;SDS011;5982;37.494;-8.758;2022-11-11T05:08:28;4.40;;;0.75;;
11845;SDS011;5982;37.494;-8.758;2022-11-11T05:11:14;4.15;;;0.77;;
11845;SDS011;5982;37.494;-8.758;2022-11-11T05:13:43;1.23;;;0.50;;
11845;SDS011;5982;37.494;-8.758;2022-11-11T05:16:29;7.20;;;0.93;;
11845;SDS011;5982;37.494;-8.758;2022-11-11T05:19:18;4.23;;;0.63;;
11845;SDS011;5982;37.494;-8.758;2022-11-11T05:22:05;1.70;;;0.40;;
11845;SDS011;5982;37.494;-8.758;2022-11-11T05:24:38;3.20;;;0.90;;
11845;SDS011;5982;37.494;-8.758;2022-11-11T05:27:24;1.30;;;0.70;;
11845;SDS011;5982;37.494;-8.758;2022-11-11T05:29:52;3.63;;;0.60;;
11845;SDS011;5982;37.494;-8.758;2022-11-11T05:32:21;2.10;;;0.70;;
11845;SDS011;5982;37.494;-8.758;2022-11-11T05:34:51;2.65;;;0.90;;
11845;SDS011;5982;37.494;-8.758;2022-11-11T05:37:20;4.05;;;0.70;;
11845;SDS011;5982;37.494;-8.758;2022-11-11T05:39:48;2.28;;;0.82;;
11845;SDS011;5982;37.494;-8.758;2022-11-11T05:42:17;2.63;;;0.90;;
11845;SDS011;5982;37.494;-8.758;2022-11-11T05:44:45;4.90;;;0.87;;
11845;SDS011;5982;37.494;-8.758;2022-11-11T05:47:13;3.20;;;0.82;;
11845;SDS011;5982;37.494;-8.758;2022-11-11T05:49:42;6.00;;;0.90;;
11845;SDS011;5982;37.494;-8.758;2022-11-11T05:52:12;2.75;;;0.68;;
11845;SDS011;5982;37.494;-8.758;2022-11-11T05:54:42;3.97;;;1.13;;
11845;SDS011;5982;37.494;-8.758;2022-11-11T05:57:13;1.53;;;0.83;;
11845;SDS011;5982;37.494;-8.758;2022-11-11T05:59:41;2.63;;;0.80;;
11845;SDS011;5982;37.494;-8.758;2022-11-11T06:02:10;1.73;;;0.77;;
11845;SDS011;5982;37.494;-8.758;2022-11-11T06:04:38;4.60;;;0.90;;
11845;SDS011;5982;37.494;-8.758;2022-11-11T06:07:06;2.85;;;1.02;;
11845;SDS011;5982;37.494;-8.758;2022-11-11T06:09:36;2.60;;;0.70;;
11845;SDS011;5982;37.494;-8.758;2022-11-11T06:12:04;1.70;;;0.65;;
11845;SDS011;5982;37.494;-8.758;2022-11-11T06:14:32;2.10;;;0.80;;
11845;SDS011;5982;37.494;-8.758;2022-11-11T06:17:01;2.58;;;0.90;;
11845;SDS011;5982;37.494;-8.758;2022-11-11T06:19:29;2.70;;;1.02;;
11845;SDS011;5982;37.494;-8.758;2022-11-11T06:21:57;5.47;;;1.33;;
11845;SDS011;5982;37.494;-8.758;2022-11-11T06:24:28;14.30;;;7.85;;
11845;SDS011;5982;37.494;-8.758;2022-11-11T06:26:57;3.40;;;1.42;;
11845;SDS011;5982;37.494;-8.758;2022-11-11T06:29:24;2.72;;;1.23;;
11845;SDS011;5982;37.494;-8.758;2022-11-11T06:31:53;3.67;;;0.80;;
11845;SDS011;5982;37.494;-8.758;2022-11-11T06:34:21;3.00;;;0.80;;
11845;SDS011;5982;37.494;-8.758;2022-11-11T06:36:49;2.53;;;0.60;;
11845;SDS011;5982;37.494;-8.758;2022-11-11T06:39:17;1.98;;;0.95;;
11845;SDS011;5982;37.494;-8.758;2022-11-11T06:41:45;1.40;;;0.77;;
11845;SDS011;5982;37.494;-8.758;2022-11-11T06:44:15;3.33;;;0.93;;
11845;SDS011;5982;37.494;-8.758;2022-11-11T06:46:43;3.20;;;0.73;;
11845;SDS011;5982;37.494;-8.758;2022-11-11T06:49:11;4.18;;;0.90;;
11845;SDS011;5982;37.494;-8.758;2022-11-11T06:51:40;2.58;;;1.05;;
11845;SDS011;5982;37.494;-8.758;2022-11-11T06:54:08;5.40;;;1.20;;
11845;SDS011;5982;37.494;-8.758;2022-11-11T06:56:36;2.50;;;0.82;;
11845;SDS011;5982;37.494;-8.758;2022-11-11T06:59:05;2.70;;;1.10;;
11845;SDS011;5982;37.494;-8.758;2022-11-11T07:01:34;2.33;;;1.30;;
11845;SDS011;5982;37.494;-8.758;2022-11-11T07:04:03;4.47;;;1.55;;
11845;SDS011;5982;37.494;-8.758;2022-11-11T07:06:31;2.83;;;1.05;;
11845;SDS011;5982;37.494;-8.758;2022-11-11T07:08:59;2.22;;;1.00;;
11845;SDS011;5982;37.494;-8.758;2022-11-11T07:11:27;4.07;;;1.23;;
11845;SDS011;5982;37.494;-8.758;2022-11-11T07:13:55;3.90;;;1.45;;
11845;SDS011;5982;37.494;-8.758;2022-11-11T07:16:24;2.85;;;1.15;;
11845;SDS011;5982;37.494;-8.758;2022-11-11T07:18:53;3.97;;;1.50;;
11845;SDS011;5982;37.494;-8.758;2022-11-11T07:21:22;4.45;;;1.90;;
11845;SDS011;5982;37.494;-8.758;2022-11-11T07:23:50;5.67;;;1.30;;
11845;SDS011;5982;37.494;-8.758;2022-11-11T07:26:18;2.60;;;0.95;;
11845;SDS011;5982;37.494;-8.758;2022-11-11T07:28:46;4.10;;;0.85;;
11845;SDS011;5982;37.494;-8.758;2022-11-11T07:31:15;3.05;;;1.00;;
11845;SDS011;5982;37.494;-8.758;2022-11-11T07:33:44;2.33;;;1.05;;
11845;SDS011;5982;37.494;-8.758;2022-11-11T07:36:14;3.13;;;1.10;;
11845;SDS011;5982;37.494;-8.758;2022-11-11T07:38:42;2.17;;;0.85;;
11845;SDS011;5982;37.494;-8.758;2022-11-11T07:41:10;3.17;;;1.13;;
11845;SDS011;5982;37.494;-8.758;2022-11-11T07:43:38;4.85;;;2.47;;
11845;SDS011;5982;37.494;-8.758;2022-11-11T07:46:07;3.53;;;1.33;;
11845;SDS011;5982;37.494;-8.758;2022-11-11T07:48:35;2.57;;;0.93;;
11845;SDS011;5982;37.494;-8.758;2022-11-11T07:51:03;3.28;;;0.95;;
11845;SDS011;5982;37.494;-8.758;2022-11-11T07:53:33;3.70;;;1.10;;
11845;SDS011;5982;37.494;-8.758;2022-11-11T07:56:01;2.42;;;0.77;;
11845;SDS011;5982;37.494;-8.758;2022-11-11T07:58:30;2.72;;;1.00;;
11845;SDS011;5982;37.494;-8.758;2022-11-11T08:00:58;3.70;;;1.00;;
11845;SDS011;5982;37.494;-8.758;2022-11-11T08:03:27;2.28;;;0.70;;
11845;SDS011;5982;37.494;-8.758;2022-11-11T08:05:55;1.65;;;0.98;;
11845;SDS011;5982;37.494;-8.758;2022-11-11T08:08:24;2.53;;;1.15;;
11845;SDS011;5982;37.494;-8.758;2022-11-11T08:10:54;5.25;;;1.42;;
11845;SDS011;5982;37.494;-8.758;2022-11-11T08:13:22;6.87;;;1.97;;
11845;SDS011;5982;37.494;-8.758;2022-11-11T08:16:09;4.90;;;1.27;;
11845;SDS011;5982;37.494;-8.758;2022-11-11T08:18:39;4.05;;;1.73;;
11845;SDS011;5982;37.494;-8.758;2022-11-11T08:21:08;2.20;;;1.20;;
11845;SDS011;5982;37.494;-8.758;2022-11-11T08:23:36;3.03;;;0.93;;
11845;SDS011;5982;37.494;-8.758;2022-11-11T08:26:06;3.63;;;0.83;;
11845;SDS011;5982;37.494;-8.758;2022-11-11T08:28:34;2.60;;;0.85;;
11845;SDS011;5982;37.494;-8.758;2022-11-11T08:31:02;3.63;;;1.10;;
11845;SDS011;5982;37.494;-8.758;2022-11-11T08:33:30;3.17;;;0.80;;
11845;SDS011;5982;37.494;-8.758;2022-11-11T08:35:59;2.88;;;0.95;;
11845;SDS011;5982;37.494;-8.758;2022-11-11T08:38:27;3.07;;;1.30;;
11845;SDS011;5982;37.494;-8.758;2022-11-11T08:40:58;1.88;;;0.60;;
11845;SDS011;5982;37.494;-8.758;2022-11-11T08:43:28;5.85;;;0.90;;
11845;SDS011;5982;37.494;-8.758;2022-11-11T08:45:57;9.15;;;0.90;;
11845;SDS011;5982;37.494;-8.758;2022-11-11T08:48:25;3.30;;;0.85;;
11845;SDS011;5982;37.494;-8.758;2022-11-11T08:50:54;2.60;;;0.60;;
11845;SDS011;5982;37.494;-8.758;2022-11-11T08:53:22;3.15;;;0.57;;
11845;SDS011;5982;37.494;-8.758;2022-11-11T08:55:52;2.65;;;0.57;;
11845;SDS011;5982;37.494;-8.758;2022-11-11T08:58:20;2.78;;;0.65;;
11845;SDS011;5982;37.494;-8.758;2022-11-11T09:00:50;1.70;;;0.45;;
11845;SDS011;5982;37.494;-8.758;2022-11-11T09:03:18;1.37;;;0.40;;
11845;SDS011;5982;37.494;-8.758;2022-11-11T09:05:46;2.15;;;0.63;;
11845;SDS011;5982;37.494;-8.758;2022-11-11T09:08:15;2.72;;;0.60;;
11845;SDS011;5982;37.494;-8.758;2022-11-11T09:10:44;2.47;;;0.50;;
11845;SDS011;5982;37.494;-8.758;2022-11-11T09:13:12;3.22;;;0.55;;
11845;SDS011;5982;37.494;-8.758;2022-11-11T09:15:40;2.37;;;0.63;;
11845;SDS011;5982;37.494;-8.758;2022-11-11T09:18:10;1.30;;;0.50;;
11845;SDS011;5982;37.494;-8.758;2022-11-11T09:20:38;2.40;;;0.60;;
11845;SDS011;5982;37.494;-8.758;2022-11-11T09:23:07;1.15;;;0.30;;
11845;SDS011;5982;37.494;-8.758;2022-11-11T09:25:35;1.63;;;0.60;;
11845;SDS011;5982;37.494;-8.758;2022-11-11T09:28:03;1.73;;;0.40;;
11845;SDS011;5982;37.494;-8.758;2022-11-11T09:30:32;2.20;;;0.60;;
11845;SDS011;5982;37.494;-8.758;2022-11-11T09:33:00;1.25;;;0.50;;
11845;SDS011;5982;37.494;-8.758;2022-11-11T09:35:31;0.88;;;0.30;;
11845;SDS011;5982;37.494;-8.758;2022-11-11T09:38:00;2.25;;;0.52;;
11845;SDS011;5982;37.494;-8.758;2022-11-11T09:40:32;1.97;;;0.40;;
11845;SDS011;5982;37.494;-8.758;2022-11-11T09:43:19;3.13;;;0.50;;
11845;SDS011;5982;37.494;-8.758;2022-11-11T09:46:02;1.45;;;0.35;;
11845;SDS011;5982;37.494;-8.758;2022-11-11T09:48:48;1.77;;;0.30;;
11845;SDS011;5982;37.494;-8.758;2022-11-11T09:51:54;3.65;;;0.60;;
11845;SDS011;5982;37.494;-8.758;2022-11-11T09:54:30;1.17;;;0.50;;
11845;SDS011;5982;37.494;-8.758;2022-11-11T09:57:04;1.50;;;0.22;;
11845;SDS011;5982;37.494;-8.758;2022-11-11T09:59:44;3.33;;;0.65;;
11845;SDS011;5982;37.494;-8.758;2022-11-11T10:02:19;3.17;;;0.60;;
11845;SDS011;5982;37.494;-8.758;2022-11-11T10:04:59;1.08;;;0.50;;
11845;SDS011;5982;37.494;-8.758;2022-11-11T10:07:35;3.03;;;0.70;;
11845;SDS011;5982;37.494;-8.758;2022-11-11T10:10:13;0.60;;;0.28;;
11845;SDS011;5982;37.494;-8.758;2022-11-11T10:12:51;2.33;;;0.70;;
11845;SDS011;5982;37.494;-8.758;2022-11-11T10:15:21;1.73;;;0.50;;
11845;SDS011;5982;37.494;-8.758;2022-11-11T10:18:13;1.17;;;0.43;;
11845;SDS011;5982;37.494;-8.758;2022-11-11T10:20:52;1.67;;;0.50;;
11845;SDS011;5982;37.494;-8.758;2022-11-11T10:23:25;1.98;;;0.55;;
11845;SDS011;5982;37.494;-8.758;2022-11-11T10:25:59;2.78;;;0.60;;
11845;SDS011;5982;37.494;-8.758;2022-11-11T10:28:34;1.52;;;0.68;;
11845;SDS011;5982;37.494;-8.758;2022-11-11T10:31:03;3.45;;;0.80;;
11845;SDS011;5982;37.494;-8.758;2022-11-11T10:33:40;3.77;;;0.60;;
11845;SDS011;5982;37.494;-8.758;2022-11-11T10:36:15;2.35;;;0.52;;
11845;SDS011;5982;37.494;-8.758;2022-11-11T10:38:48;1.50;;;0.40;;
11845;SDS011;5982;37.494;-8.758;2022-11-11T10:41:22;2.20;;;0.68;;
11845;SDS011;5982;37.494;-8.758;2022-11-11T10:43:57;3.10;;;0.30;;
11845;SDS011;5982;37.494;-8.758;2022-11-11T10:46:26;1.60;;;0.50;;
11845;SDS011;5982;37.494;-8.758;2022-11-11T10:49:04;2.30;;;0.50;;
11845;SDS011;5982;37.494;-8.758;2022-11-11T10:51:37;1.00;;;0.30;;
11845;SDS011;5982;37.494;-8.758;2022-11-11T10:54:14;3.47;;;0.57;;
11845;SDS011;5982;37.494;-8.758;2022-11-11T10:56:48;1.60;;;0.45;;
11845;SDS011;5982;37.494;-8.758;2022-11-11T10:59:23;1.60;;;0.50;;
11845;SDS011;5982;37.494;-8.758;2022-11-11T11:02:00;2.65;;;0.57;;
11845;SDS011;5982;37.494;-8.758;2022-11-11T11:04:39;2.63;;;0.90;;
11845;SDS011;5982;37.494;-8.758;2022-11-11T11:07:13;2.42;;;0.60;;
11845;SDS011;5982;37.494;-8.758;2022-11-11T11:09:49;3.35;;;0.60;;
11845;SDS011;5982;37.494;-8.758;2022-11-11T11:12:24;4.10;;;0.63;;
11845;SDS011;5982;37.494;-8.758;2022-11-11T11:14:58;1.95;;;0.50;;
11845;SDS011;5982;37.494;-8.758;2022-11-11T11:17:34;3.45;;;0.77;;
11845;SDS011;5982;37.494;-8.758;2022-11-11T11:20:08;2.30;;;0.50;;
11845;SDS011;5982;37.494;-8.758;2022-11-11T11:22:44;0.60;;;0.45;;
11845;SDS011;5982;37.494;-8.758;2022-11-11T11:25:17;2.07;;;0.57;;
11845;SDS011;5982;37.494;-8.758;2022-11-11T11:27:48;1.80;;;0.45;;
11845;SDS011;5982;37.494;-8.758;2022-11-11T11:30:19;1.70;;;0.57;;
11845;SDS011;5982;37.494;-8.758;2022-11-11T11:32:56;1.40;;;0.40;;
11845;SDS011;5982;37.494;-8.758;2022-11-11T11:35:31;2.53;;;0.63;;
11845;SDS011;5982;37.494;-8.758;2022-11-11T11:38:04;2.77;;;0.43;;
11845;SDS011;5982;37.494;-8.758;2022-11-11T11:40:47;2.38;;;0.50;;
11845;SDS011;5982;37.494;-8.758;2022-11-11T11:43:24;1.48;;;0.43;;
11845;SDS011;5982;37.494;-8.758;2022-11-11T11:45:59;1.58;;;0.25;;
11845;SDS011;5982;37.494;-8.758;2022-11-11T11:48:34;1.80;;;0.32;;
11845;SDS011;5982;37.494;-8.758;2022-11-11T11:51:28;1.77;;;0.40;;
11845;SDS011;5982;37.494;-8.758;2022-11-11T11:54:03;0.52;;;0.32;;
11845;SDS011;5982;37.494;-8.758;2022-11-11T11:57:12;1.50;;;0.43;;
11845;SDS011;5982;37.494;-8.758;2022-11-11T12:00:00;2.10;;;0.40;;
11845;SDS011;5982;37.494;-8.758;2022-11-11T12:02:47;2.15;;;0.47;;
11845;SDS011;5982;37.494;-8.758;2022-11-11T12:05:46;1.13;;;0.50;;
11845;SDS011;5982;37.494;-8.758;2022-11-11T12:08:20;0.90;;;0.30;;
11845;SDS011;5982;37.494;-8.758;2022-11-11T12:11:08;2.40;;;0.55;;
11845;SDS011;5982;37.494;-8.758;2022-11-11T12:13:48;2.92;;;0.40;;
11845;SDS011;5982;37.494;-8.758;2022-11-11T12:16:37;3.88;;;0.65;;
11845;SDS011;5982;37.494;-8.758;2022-11-11T12:19:16;1.67;;;0.30;;
11845;SDS011;5982;37.494;-8.758;2022-11-11T12:22:05;1.05;;;0.40;;
11845;SDS011;5982;37.494;-8.758;2022-11-11T12:24:52;2.45;;;0.80;;
11845;SDS011;5982;37.494;-8.758;2022-11-11T12:27:30;4.07;;;0.55;;
11845;SDS011;5982;37.494;-8.758;2022-11-11T12:30:09;4.57;;;0.95;;
11845;SDS011;5982;37.494;-8.758;2022-11-11T12:32:44;1.37;;;0.50;;
11845;SDS011;5982;37.494;-8.758;2022-11-11T12:35:42;1.60;;;0.60;;
11845;SDS011;5982;37.494;-8.758;2022-11-11T12:38:31;2.65;;;0.63;;
11845;SDS011;5982;37.494;-8.758;2022-11-11T12:41:26;2.85;;;0.73;;
11845;SDS011;5982;37.494;-8.758;2022-11-11T12:44:09;3.17;;;0.88;;
11845;SDS011;5982;37.494;-8.758;2022-11-11T12:46:44;1.63;;;0.50;;
11845;SDS011;5982;37.494;-8.758;2022-11-11T12:49:30;2.10;;;0.73;;
11845;SDS011;5982;37.494;-8.758;2022-11-11T12:52:19;2.00;;;0.60;;
11845;SDS011;5982;37.494;-8.758;2022-11-11T12:55:06;2.13;;;0.77;;
11845;SDS011;5982;37.494;-8.758;2022-11-11T12:57:47;1.65;;;0.50;;
11845;SDS011;5982;37.494;-8.758;2022-11-11T13:00:29;1.47;;;0.50;;
11845;SDS011;5982;37.494;-8.758;2022-11-11T13:06:00;1.48;;;0.55;;
11845;SDS011;5982;37.494;-8.758;2022-11-11T13:08:53;1.35;;;0.40;;
11845;SDS011;5982;37.494;-8.758;2022-11-11T13:11:47;1.08;;;0.38;;
11845;SDS011;5982;37.494;-8.758;2022-11-11T13:14:38;2.67;;;0.50;;
11845;SDS011;5982;37.494;-8.758;2022-11-11T13:17:15;2.20;;;0.70;;
11845;SDS011;5982;37.494;-8.758;2022-11-11T13:19:48;2.13;;;0.50;;
11845;SDS011;5982;37.494;-8.758;2022-11-11T13:22:21;1.63;;;0.32;;
11845;SDS011;5982;37.494;-8.758;2022-11-11T13:24:52;1.42;;;0.40;;
11845;SDS011;5982;37.494;-8.758;2022-11-11T13:27:33;1.97;;;0.60;;
11845;SDS011;5982;37.494;-8.758;2022-11-11T13:33:26;1.48;;;0.70;;
11845;SDS011;5982;37.494;-8.758;2022-11-11T13:36:07;3.28;;;0.60;;
11845;SDS011;5982;37.494;-8.758;2022-11-11T13:38:38;2.88;;;0.35;;
11845;SDS011;5982;37.494;-8.758;2022-11-11T13:41:18;1.57;;;0.50;;
11845;SDS011;5982;37.494;-8.758;2022-11-11T13:43:51;1.83;;;0.55;;
11845;SDS011;5982;37.494;-8.758;2022-11-11T13:46:28;2.38;;;0.45;;
11845;SDS011;5982;37.494;-8.758;2022-11-11T13:49:01;1.92;;;0.40;;
11845;SDS011;5982;37.494;-8.758;2022-11-11T13:51:35;1.27;;;0.45;;
11845;SDS011;5982;37.494;-8.758;2022-11-11T13:54:06;1.10;;;0.40;;
11845;SDS011;5982;37.494;-8.758;2022-11-11T13:56:50;1.05;;;0.30;;
11845;SDS011;5982;37.494;-8.758;2022-11-11T13:59:23;1.45;;;0.40;;
11845;SDS011;5982;37.494;-8.758;2022-11-11T14:02:11;1.13;;;0.30;;
11845;SDS011;5982;37.494;-8.758;2022-11-11T14:07:53;2.50;;;0.40;;
11845;SDS011;5982;37.494;-8.758;2022-11-11T14:13:39;1.35;;;0.30;;
11845;SDS011;5982;37.494;-8.758;2022-11-11T14:16:08;1.23;;;0.30;;
11845;SDS011;5982;37.494;-8.758;2022-11-11T14:18:41;1.70;;;0.40;;
11845;SDS011;5982;37.494;-8.758;2022-11-11T14:21:10;0.70;;;0.13;;
11845;SDS011;5982;37.494;-8.758;2022-11-11T14:24:23;2.03;;;0.30;;
11845;SDS011;5982;37.494;-8.758;2022-11-11T14:27:00;2.83;;;0.55;;
11845;SDS011;5982;37.494;-8.758;2022-11-11T14:29:30;1.40;;;0.50;;
11845;SDS011;5982;37.494;-8.758;2022-11-11T14:32:08;0.73;;;0.32;;
11845;SDS011;5982;37.494;-8.758;2022-11-11T14:34:58;1.13;;;0.40;;
11845;SDS011;5982;37.494;-8.758;2022-11-11T14:37:56;2.42;;;0.38;;
11845;SDS011;5982;37.494;-8.758;2022-11-11T14:40:48;1.95;;;0.47;;
11845;SDS011;5982;37.494;-8.758;2022-11-11T17:12:38;9.87;;;3.50;;
11845;SDS011;5982;37.494;-8.758;2022-11-11T17:15:09;7.30;;;3.28;;
11845;SDS011;5982;37.494;-8.758;2022-11-11T17:17:38;7.63;;;3.10;;
11845;SDS011;5982;37.494;-8.758;2022-11-11T17:20:10;10.40;;;4.10;;
11845;SDS011;5982;37.494;-8.758;2022-11-11T17:22:47;10.50;;;3.90;;
11845;SDS011;5982;37.494;-8.758;2022-11-11T17:25:16;10.03;;;3.47;;
11845;SDS011;5982;37.494;-8.758;2022-11-11T17:27:45;10.15;;;3.47;;
11845;SDS011;5982;37.494;-8.758;2022-11-11T17:30:15;10.70;;;3.40;;
11845;SDS011;5982;37.494;-8.758;2022-11-11T17:32:46;11.32;;;3.50;;
11845;SDS011;5982;37.494;-8.758;2022-11-11T17:35:14;10.38;;;4.25;;
11845;SDS011;5982;37.494;-8.758;2022-11-11T17:37:42;10.73;;;4.30;;
11845;SDS011;5982;37.494;-8.758;2022-11-11T17:40:11;8.60;;;3.88;;
11845;SDS011;5982;37.494;-8.758;2022-11-11T17:42:39;10.00;;;3.85;;
11845;SDS011;5982;37.494;-8.758;2022-11-11T17:45:08;9.23;;;3.80;;
11845;SDS011;5982;37.494;-8.758;2022-11-11T17:47:38;9.07;;;4.25;;
11845;SDS011;5982;37.494;-8.758;2022-11-11T17:50:07;6.50;;;4.27;;
11845;SDS011;5982;37.494;-8.758;2022-11-11T17:52:35;9.82;;;3.78;;
11845;SDS011;5982;37.494;-8.758;2022-11-11T17:55:03;8.63;;;3.78;;
11845;SDS011;5982;37.494;-8.758;2022-11-11T17:57:33;8.25;;;3.80;;
11845;SDS011;5982;37.494;-8.758;2022-11-11T18:00:01;9.68;;;3.90;;
11845;SDS011;5982;37.494;-8.758;2022-11-11T18:02:30;13.67;;;4.20;;
11845;SDS011;5982;37.494;-8.758;2022-11-11T18:05:00;9.95;;;3.72;;
11845;SDS011;5982;37.494;-8.758;2022-11-11T18:07:28;9.70;;;3.80;;
11845;SDS011;5982;37.494;-8.758;2022-11-11T18:09:57;11.45;;;4.22;;
11845;SDS011;5982;37.494;-8.758;2022-11-11T18:12:26;7.28;;;3.80;;
11845;SDS011;5982;37.494;-8.758;2022-11-11T18:14:55;9.30;;;3.60;;
